Knickerbocker — WDC7987 — position and weather

sailwx.info

Track history (hours):
 
Tides and Currents Weather Stations Pressure Air Temp Water Temp Dewpoint Dewpoint Depression Visibility Wind Speed Wind Dir Waves Ship Positions

Knickerbocker

Owner: Christopher Corp., Newport, RI. More information available from US FCC via Universal Licensing System and Coast Guard Vessel Documentation Center.

Last reported at 2018-May-24 13:37 UTC. Time now 2018-Jun-17 23:42 UTC.
Position N 40°46' W 073°57'.
Warning: this ship's position is 24 days out of date.

Length 36 m; draft 3.6 m.

Type: Sailing vessel. MMSI: 367079960.

Date/timePositionNaut miles runAvg speedWind from/ knotsBaromVisibWave heightAir tempDewpointWater temp
2018-May-24 13:37N 40°46' W 073°57'1 6.5
2018-May-24 13:30N 40°45' W 073°58'3 0.7
2018-May-24 08:59N 40°43' W 074°01'0 0.0
2018-May-24 08:29N 40°43' W 074°01'0 0.0
2018-May-24 07:59N 40°43' W 074°01'0 0.0
2018-May-24 07:29N 40°43' W 074°01'0 0.0
2018-May-24 06:59N 40°43' W 074°01'0 0.0
2018-May-24 06:29N 40°43' W 074°01'0 0.0
2018-May-24 05:59N 40°43' W 074°01'0 0.0
2018-May-24 05:26N 40°43' W 074°01'0 0.0
2018-May-24 04:59N 40°43' W 074°01'0 0.0
2018-May-24 04:29N 40°43' W 074°01'0 0.0
2018-May-24 03:59N 40°43' W 074°01'0 0.0
2018-May-24 03:29N 40°43' W 074°01'0 0.0
2018-May-24 02:59N 40°43' W 074°01'0 0.0
2018-May-24 02:30N 40°43' W 074°01'1 2.0
2018-May-24 02:00N 40°44' W 074°01'1 1.0
2018-May-24 01:16N 40°44' W 074°01'1 4.3
2018-May-24 01:00N 40°43' W 074°01'2 3.7
2018-May-24 00:30N 40°42' W 074°02'1 2.2
2018-May-24 00:00N 40°43' W 074°01'0 0.5
2018-May-23 23:29N 40°43' W 074°01'0 0.0
2018-May-23 22:59N 40°43' W 074°01'0 0.0
2018-May-23 22:29N 40°43' W 074°01'0 0.0
2018-May-23 21:59N 40°43' W 074°01'0 0.0
2018-May-23 21:29N 40°43' W 074°01'0 0.0
2018-May-23 20:59N 40°43' W 074°01'0 0.0
2018-May-23 20:29N 40°43' W 074°01'0 0.0
2018-May-23 19:59N 40°43' W 074°01'0 0.0
2018-May-23 19:29N 40°43' W 074°01'0 0.0
2018-May-23 18:59N 40°43' W 074°01'0 0.0
2018-May-23 18:29N 40°43' W 074°01'0 0.0
2018-May-23 17:59N 40°43' W 074°01'0 0.0
2018-May-23 17:20N 40°43' W 074°01'0 0.0
2018-May-23 17:00N 40°43' W 074°01'0 0.0
2018-May-23 16:30N 40°43' W 074°01'1 1.9
2018-May-23 16:00N 40°42' W 074°00'4 8.3
2018-May-23 15:31N 40°45' W 073°57'54 1.2
2018-May-21 17:28N 41°06' W 072°51'511.1
2018-May-21 17:00N 41°07' W 072°45'510.8
2018-May-21 16:30N 41°08' W 072°38'510.8
2018-May-21 16:00N 41°09' W 072°30'510.6
2018-May-21 15:30N 41°11' W 072°24'5 9.9
2018-May-21 15:00N 41°12' W 072°17'4 8.5
2018-May-21 14:29N 41°13' W 072°12'  
Track history (hours):
 
Tides and Currents Weather Stations Pressure Air Temp Water Temp Dewpoint Dewpoint Depression Visibility Wind Speed Wind Dir Waves Ship Positions

Knickerbocker

Owner: Christopher Corp., Newport, RI. More information available from US FCC via Universal Licensing System and Coast Guard Vessel Documentation Center.

Last reported at 2018-May-24 13:37 UTC. Time now 2018-Jun-17 23:42 UTC.
Position N 40°46' W 073°57'.
Warning: this ship's position is 24 days out of date.

Length 36 m; draft 3.6 m.

Type: Sailing vessel. MMSI: 367079960.

Date/timePositionNaut miles runAvg speedWind from/ knotsBaromVisibWave heightAir tempDewpointWater temp
2018-May-24 13:37N 40°46' W 073°57'1 6.5
2018-May-24 13:30N 40°45' W 073°58'3 0.7
2018-May-24 08:59N 40°43' W 074°01'0 0.0
2018-May-24 08:29N 40°43' W 074°01'0 0.0
2018-May-24 07:59N 40°43' W 074°01'0 0.0
2018-May-24 07:29N 40°43' W 074°01'0 0.0
2018-May-24 06:59N 40°43' W 074°01'0 0.0
2018-May-24 06:29N 40°43' W 074°01'0 0.0
2018-May-24 05:59N 40°43' W 074°01'0 0.0
2018-May-24 05:26N 40°43' W 074°01'0 0.0
2018-May-24 04:59N 40°43' W 074°01'0 0.0
2018-May-24 04:29N 40°43' W 074°01'0 0.0
2018-May-24 03:59N 40°43' W 074°01'0 0.0
2018-May-24 03:29N 40°43' W 074°01'0 0.0
2018-May-24 02:59N 40°43' W 074°01'0 0.0
2018-May-24 02:30N 40°43' W 074°01'1 2.0
2018-May-24 02:00N 40°44' W 074°01'1 1.0
2018-May-24 01:16N 40°44' W 074°01'1 4.3
2018-May-24 01:00N 40°43' W 074°01'2 3.7
2018-May-24 00:30N 40°42' W 074°02'1 2.2
2018-May-24 00:00N 40°43' W 074°01'0 0.5
2018-May-23 23:29N 40°43' W 074°01'0 0.0
2018-May-23 22:59N 40°43' W 074°01'0 0.0
2018-May-23 22:29N 40°43' W 074°01'0 0.0
2018-May-23 21:59N 40°43' W 074°01'0 0.0
2018-May-23 21:29N 40°43' W 074°01'0 0.0
2018-May-23 20:59N 40°43' W 074°01'0 0.0
2018-May-23 20:29N 40°43' W 074°01'0 0.0
2018-May-23 19:59N 40°43' W 074°01'0 0.0
2018-May-23 19:29N 40°43' W 074°01'0 0.0
2018-May-23 18:59N 40°43' W 074°01'0 0.0
2018-May-23 18:29N 40°43' W 074°01'0 0.0
2018-May-23 17:59N 40°43' W 074°01'0 0.0
2018-May-23 17:20N 40°43' W 074°01'0 0.0
2018-May-23 17:00N 40°43' W 074°01'0 0.0
2018-May-23 16:30N 40°43' W 074°01'1 1.9
2018-May-23 16:00N 40°42' W 074°00'4 8.3
2018-May-23 15:31N 40°45' W 073°57'54 1.2
2018-May-21 17:28N 41°06' W 072°51'511.1
2018-May-21 17:00N 41°07' W 072°45'510.8
2018-May-21 16:30N 41°08' W 072°38'510.8
2018-May-21 16:00N 41°09' W 072°30'510.6
2018-May-21 15:30N 41°11' W 072°24'5 9.9
2018-May-21 15:00N 41°12' W 072°17'4 8.5
2018-May-21 14:29N 41°13' W 072°12'  

Dump ship's entire track history